sensor_id;sensor_type;location;lat;lon;timestamp;pressure;altitude;pressure_sealevel;temperature;humidity
2563;BME280;1291;51.420;6.970;2023-05-29T00:01:27;100550.50;;;33.83;nan
2563;BME280;1291;51.420;6.970;2023-05-29T00:03:53;100539.28;;;34.88;nan
2563;BME280;1291;51.420;6.970;2023-05-29T00:06:21;100548.28;;;35.14;nan
2563;BME280;1291;51.420;6.970;2023-05-29T00:08:49;100537.97;;;34.11;nan
2563;BME280;1291;51.420;6.970;2023-05-29T00:11:15;100548.13;;;33.78;nan
2563;BME280;1291;51.420;6.970;2023-05-29T00:13:40;100546.63;;;33.58;nan
2563;BME280;1291;51.420;6.970;2023-05-29T00:16:06;100549.28;;;34.17;nan
2563;BME280;1291;51.420;6.970;2023-05-29T00:18:31;100547.44;;;33.30;nan
2563;BME280;1291;51.420;6.970;2023-05-29T00:20:56;100558.50;;;31.81;nan
2563;BME280;1291;51.420;6.970;2023-05-29T00:23:22;100552.72;;;34.61;nan
2563;BME280;1291;51.420;6.970;2023-05-29T00:25:48;100559.75;;;34.78;nan
2563;BME280;1291;51.420;6.970;2023-05-29T00:28:13;100554.66;;;33.88;nan
2563;BME280;1291;51.420;6.970;2023-05-29T00:30:41;100556.97;;;34.23;nan
2563;BME280;1291;51.420;6.970;2023-05-29T00:33:07;100556.56;;;33.27;nan
2563;BME280;1291;51.420;6.970;2023-05-29T00:35:33;100559.44;;;32.46;nan
2563;BME280;1291;51.420;6.970;2023-05-29T00:37:58;100555.75;;;33.56;nan
2563;BME280;1291;51.420;6.970;2023-05-29T00:40:25;100570.69;;;32.21;nan
2563;BME280;1291;51.420;6.970;2023-05-29T00:42:50;100573.69;;;32.64;nan
2563;BME280;1291;51.420;6.970;2023-05-29T00:45:18;100569.28;;;33.84;nan
2563;BME280;1291;51.420;6.970;2023-05-29T00:47:44;100573.19;;;33.34;nan
2563;BME280;1291;51.420;6.970;2023-05-29T00:50:10;100585.22;;;32.01;nan
2563;BME280;1291;51.420;6.970;2023-05-29T00:52:39;100590.38;;;33.01;nan
2563;BME280;1291;51.420;6.970;2023-05-29T00:55:06;100590.75;;;30.16;nan
2563;BME280;1291;51.420;6.970;2023-05-29T00:57:33;100587.59;;;32.87;nan
2563;BME280;1291;51.420;6.970;2023-05-29T01:00:00;100609.53;;;31.63;nan
2563;BME280;1291;51.420;6.970;2023-05-29T01:02:27;100603.22;;;32.48;nan
2563;BME280;1291;51.420;6.970;2023-05-29T01:04:54;100598.66;;;32.01;nan
2563;BME280;1291;51.420;6.970;2023-05-29T01:07:20;100600.28;;;30.61;nan
2563;BME280;1291;51.420;6.970;2023-05-29T01:09:45;100592.66;;;32.12;nan
2563;BME280;1291;51.420;6.970;2023-05-29T01:28:52;100603.72;;;31.72;nan
2563;BME280;1291;51.420;6.970;2023-05-29T01:31:23;100609.47;;;31.47;nan
2563;BME280;1291;51.420;6.970;2023-05-29T01:33:54;100605.00;;;32.48;nan
2563;BME280;1291;51.420;6.970;2023-05-29T01:36:20;100616.16;;;32.24;nan
2563;BME280;1291;51.420;6.970;2023-05-29T01:38:47;100609.72;;;31.60;nan
2563;BME280;1291;51.420;6.970;2023-05-29T01:41:12;100614.00;;;31.47;nan
2563;BME280;1291;51.420;6.970;2023-05-29T01:43:38;100619.06;;;32.37;nan
2563;BME280;1291;51.420;6.970;2023-05-29T01:46:03;100612.69;;;32.87;nan
2563;BME280;1291;51.420;6.970;2023-05-29T01:48:29;100614.84;;;31.65;nan
2563;BME280;1291;51.420;6.970;2023-05-29T01:50:56;100604.72;;;31.87;nan
2563;BME280;1291;51.420;6.970;2023-05-29T01:53:25;100615.66;;;29.99;nan
2563;BME280;1291;51.420;6.970;2023-05-29T01:55:51;100625.44;;;31.14;nan
2563;BME280;1291;51.420;6.970;2023-05-29T01:58:17;100623.75;;;31.30;nan
2563;BME280;1291;51.420;6.970;2023-05-29T02:00:44;100630.88;;;31.12;nan
2563;BME280;1291;51.420;6.970;2023-05-29T02:03:09;100627.47;;;30.91;nan
2563;BME280;1291;51.420;6.970;2023-05-29T02:05:35;100627.75;;;31.39;nan
2563;BME280;1291;51.420;6.970;2023-05-29T02:08:00;100624.38;;;30.03;nan
2563;BME280;1291;51.420;6.970;2023-05-29T02:10:26;100619.38;;;31.98;nan
2563;BME280;1291;51.420;6.970;2023-05-29T02:12:51;100623.44;;;31.37;nan
2563;BME280;1291;51.420;6.970;2023-05-29T02:15:16;100626.50;;;31.29;nan
2563;BME280;1291;51.420;6.970;2023-05-29T02:17:42;100628.00;;;29.61;nan
2563;BME280;1291;51.420;6.970;2023-05-29T02:20:10;100635.53;;;31.45;nan
2563;BME280;1291;51.420;6.970;2023-05-29T02:22:36;100639.75;;;30.77;nan
2563;BME280;1291;51.420;6.970;2023-05-29T02:25:01;100633.72;;;30.71;nan
2563;BME280;1291;51.420;6.970;2023-05-29T02:27:29;100626.81;;;30.28;nan
2563;BME280;1291;51.420;6.970;2023-05-29T02:29:55;100627.69;;;30.85;nan
2563;BME280;1291;51.420;6.970;2023-05-29T02:32:23;100625.09;;;32.09;nan
2563;BME280;1291;51.420;6.970;2023-05-29T02:34:48;100632.16;;;31.05;nan
2563;BME280;1291;51.420;6.970;2023-05-29T02:37:14;100627.84;;;32.41;nan
2563;BME280;1291;51.420;6.970;2023-05-29T02:39:40;100636.91;;;31.35;nan
2563;BME280;1291;51.420;6.970;2023-05-29T02:42:05;100640.19;;;31.59;nan
2563;BME280;1291;51.420;6.970;2023-05-29T02:44:33;100621.31;;;32.29;nan
2563;BME280;1291;51.420;6.970;2023-05-29T02:46:59;100636.00;;;31.53;nan
2563;BME280;1291;51.420;6.970;2023-05-29T02:49:27;100633.97;;;32.27;nan
2563;BME280;1291;51.420;6.970;2023-05-29T02:51:52;100638.94;;;31.30;nan
2563;BME280;1291;51.420;6.970;2023-05-29T02:54:23;100642.78;;;30.69;nan
2563;BME280;1291;51.420;6.970;2023-05-29T02:56:48;100647.06;;;31.47;nan
2563;BME280;1291;51.420;6.970;2023-05-29T02:59:14;100634.72;;;30.89;nan
2563;BME280;1291;51.420;6.970;2023-05-29T03:01:39;100636.97;;;32.54;nan
2563;BME280;1291;51.420;6.970;2023-05-29T03:04:04;100638.03;;;32.01;nan
2563;BME280;1291;51.420;6.970;2023-05-29T03:06:30;100641.28;;;31.72;nan
2563;BME280;1291;51.420;6.970;2023-05-29T03:08:57;100647.22;;;30.70;nan
2563;BME280;1291;51.420;6.970;2023-05-29T03:11:24;100646.03;;;29.55;nan
2563;BME280;1291;51.420;6.970;2023-05-29T03:13:50;100643.72;;;31.42;nan
2563;BME280;1291;51.420;6.970;2023-05-29T03:16:15;100645.50;;;30.29;nan
2563;BME280;1291;51.420;6.970;2023-05-29T03:18:41;100649.41;;;32.06;nan
2563;BME280;1291;51.420;6.970;2023-05-29T03:21:07;100645.91;;;30.01;nan
2563;BME280;1291;51.420;6.970;2023-05-29T03:23:32;100656.25;;;29.88;nan
2563;BME280;1291;51.420;6.970;2023-05-29T03:25:58;100648.69;;;30.96;nan
2563;BME280;1291;51.420;6.970;2023-05-29T03:28:23;100644.94;;;32.22;nan
2563;BME280;1291;51.420;6.970;2023-05-29T03:30:48;100642.31;;;31.87;nan
2563;BME280;1291;51.420;6.970;2023-05-29T03:33:13;100637.56;;;32.75;nan
2563;BME280;1291;51.420;6.970;2023-05-29T03:35:39;100640.91;;;31.63;nan
2563;BME280;1291;51.420;6.970;2023-05-29T03:38:04;100648.97;;;30.90;nan
2563;BME280;1291;51.420;6.970;2023-05-29T03:40:29;100647.25;;;31.25;nan
2563;BME280;1291;51.420;6.970;2023-05-29T03:42:55;100650.06;;;29.88;nan
2563;BME280;1291;51.420;6.970;2023-05-29T03:45:20;100640.91;;;31.45;nan
2563;BME280;1291;51.420;6.970;2023-05-29T03:47:45;100645.13;;;30.77;nan
2563;BME280;1291;51.420;6.970;2023-05-29T03:50:11;100644.16;;;32.20;nan
2563;BME280;1291;51.420;6.970;2023-05-29T03:52:39;100654.94;;;31.14;nan
2563;BME280;1291;51.420;6.970;2023-05-29T03:55:11;100658.38;;;31.35;nan
2563;BME280;1291;51.420;6.970;2023-05-29T03:57:40;100648.81;;;29.95;nan
2563;BME280;1291;51.420;6.970;2023-05-29T04:00:09;100658.88;;;30.88;nan
2563;BME280;1291;51.420;6.970;2023-05-29T04:02:36;100666.19;;;30.26;nan
2563;BME280;1291;51.420;6.970;2023-05-29T04:05:02;100664.31;;;30.28;nan
2563;BME280;1291;51.420;6.970;2023-05-29T04:07:28;100665.56;;;30.98;nan
2563;BME280;1291;51.420;6.970;2023-05-29T04:09:54;100683.09;;;29.44;nan
2563;BME280;1291;51.420;6.970;2023-05-29T04:12:19;100677.84;;;29.63;nan
2563;BME280;1291;51.420;6.970;2023-05-29T04:14:44;100685.69;;;29.46;nan
2563;BME280;1291;51.420;6.970;2023-05-29T04:17:10;100677.19;;;28.68;nan
2563;BME280;1291;51.420;6.970;2023-05-29T04:19:35;100683.84;;;31.45;nan
2563;BME280;1291;51.420;6.970;2023-05-29T04:22:00;100676.38;;;30.38;nan
2563;BME280;1291;51.420;6.970;2023-05-29T04:24:26;100681.91;;;29.94;nan
2563;BME280;1291;51.420;6.970;2023-05-29T04:26:51;100677.66;;;30.09;nan
2563;BME280;1291;51.420;6.970;2023-05-29T04:29:17;100676.22;;;30.02;nan
2563;BME280;1291;51.420;6.970;2023-05-29T04:31:43;100672.78;;;31.69;nan
2563;BME280;1291;51.420;6.970;2023-05-29T04:34:09;100670.97;;;30.19;nan
2563;BME280;1291;51.420;6.970;2023-05-29T04:36:35;100662.66;;;30.84;nan
2563;BME280;1291;51.420;6.970;2023-05-29T04:39:04;100664.06;;;29.30;nan
2563;BME280;1291;51.420;6.970;2023-05-29T04:41:29;100673.00;;;29.73;nan
2563;BME280;1291;51.420;6.970;2023-05-29T04:43:56;100666.13;;;31.05;nan
2563;BME280;1291;51.420;6.970;2023-05-29T04:46:25;100673.50;;;32.74;nan
2563;BME280;1291;51.420;6.970;2023-05-29T04:48:54;100684.84;;;29.23;nan
2563;BME280;1291;51.420;6.970;2023-05-29T04:51:20;100683.41;;;30.20;nan
2563;BME280;1291;51.420;6.970;2023-05-29T04:53:46;100701.13;;;30.04;nan
2563;BME280;1291;51.420;6.970;2023-05-29T04:56:15;100691.97;;;30.28;nan
2563;BME280;1291;51.420;6.970;2023-05-29T04:58:41;100696.09;;;29.96;nan
2563;BME280;1291;51.420;6.970;2023-05-29T05:01:07;100705.63;;;30.22;nan
2563;BME280;1291;51.420;6.970;2023-05-29T05:03:34;100707.06;;;30.10;nan
2563;BME280;1291;51.420;6.970;2023-05-29T05:06:00;100711.44;;;31.11;nan
2563;BME280;1291;51.420;6.970;2023-05-29T05:08:28;100705.09;;;29.73;nan
2563;BME280;1291;51.420;6.970;2023-05-29T05:10:54;100703.91;;;30.21;nan
2563;BME280;1291;51.420;6.970;2023-05-29T05:13:19;100714.84;;;30.96;nan
2563;BME280;1291;51.420;6.970;2023-05-29T05:15:44;100715.97;;;29.68;nan
2563;BME280;1291;51.420;6.970;2023-05-29T05:18:10;100722.31;;;29.66;nan
2563;BME280;1291;51.420;6.970;2023-05-29T05:20:35;100710.84;;;31.95;nan
2563;BME280;1291;51.420;6.970;2023-05-29T05:23:00;100709.59;;;30.73;nan
2563;BME280;1291;51.420;6.970;2023-05-29T05:25:26;100712.91;;;30.60;nan
2563;BME280;1291;51.420;6.970;2023-05-29T05:27:51;100714.34;;;30.48;nan
2563;BME280;1291;51.420;6.970;2023-05-29T05:30:16;100711.91;;;30.81;nan
2563;BME280;1291;51.420;6.970;2023-05-29T05:32:42;100698.53;;;31.73;nan
2563;BME280;1291;51.420;6.970;2023-05-29T05:35:07;100703.84;;;30.23;nan
2563;BME280;1291;51.420;6.970;2023-05-29T05:37:35;100708.00;;;31.26;nan
2563;BME280;1291;51.420;6.970;2023-05-29T05:40:00;100707.88;;;30.72;nan
2563;BME280;1291;51.420;6.970;2023-05-29T05:42:29;100707.88;;;30.33;nan
2563;BME280;1291;51.420;6.970;2023-05-29T05:44:54;100706.63;;;31.18;nan
2563;BME280;1291;51.420;6.970;2023-05-29T05:47:19;100721.41;;;29.67;nan
2563;BME280;1291;51.420;6.970;2023-05-29T05:49:48;100711.94;;;31.56;nan
2563;BME280;1291;51.420;6.970;2023-05-29T05:52:15;100710.81;;;30.27;nan
2563;BME280;1291;51.420;6.970;2023-05-29T05:54:41;100720.19;;;31.14;nan
2563;BME280;1291;51.420;6.970;2023-05-29T05:57:06;100712.78;;;31.20;nan
2563;BME280;1291;51.420;6.970;2023-05-29T05:59:32;100707.25;;;30.26;nan
2563;BME280;1291;51.420;6.970;2023-05-29T06:01:57;100706.16;;;30.30;nan
2563;BME280;1291;51.420;6.970;2023-05-29T06:04:26;100702.84;;;31.22;nan
2563;BME280;1291;51.420;6.970;2023-05-29T06:06:51;100700.41;;;31.53;nan
2563;BME280;1291;51.420;6.970;2023-05-29T06:09:17;100702.00;;;31.92;nan
2563;BME280;1291;51.420;6.970;2023-05-29T06:11:42;100705.41;;;32.31;nan
2563;BME280;1291;51.420;6.970;2023-05-29T06:14:07;100707.06;;;31.27;nan
2563;BME280;1291;51.420;6.970;2023-05-29T06:16:32;100702.72;;;32.64;nan
2563;BME280;1291;51.420;6.970;2023-05-29T06:18:58;100714.94;;;31.49;nan
2563;BME280;1291;51.420;6.970;2023-05-29T06:21:23;100718.28;;;30.79;nan
2563;BME280;1291;51.420;6.970;2023-05-29T06:23:48;100722.47;;;32.30;nan
2563;BME280;1291;51.420;6.970;2023-05-29T06:26:14;100722.84;;;31.52;nan
2563;BME280;1291;51.420;6.970;2023-05-29T06:28:43;100714.44;;;33.59;nan
2563;BME280;1291;51.420;6.970;2023-05-29T06:31:09;100728.06;;;30.61;nan
2563;BME280;1291;51.420;6.970;2023-05-29T06:33:35;100722.31;;;32.33;nan
2563;BME280;1291;51.420;6.970;2023-05-29T06:36:02;100722.88;;;32.05;nan
2563;BME280;1291;51.420;6.970;2023-05-29T06:38:27;100725.50;;;32.57;nan
2563;BME280;1291;51.420;6.970;2023-05-29T06:40:52;100721.88;;;32.58;nan
2563;BME280;1291;51.420;6.970;2023-05-29T06:43:18;100726.81;;;31.98;nan
2563;BME280;1291;51.420;6.970;2023-05-29T06:45:43;100726.66;;;31.10;nan
2563;BME280;1291;51.420;6.970;2023-05-29T06:48:08;100723.66;;;30.79;nan
2563;BME280;1291;51.420;6.970;2023-05-29T06:50:33;100723.72;;;31.70;nan
2563;BME280;1291;51.420;6.970;2023-05-29T06:52:59;100717.13;;;31.78;nan
2563;BME280;1291;51.420;6.970;2023-05-29T06:55:24;100715.38;;;32.11;nan
2563;BME280;1291;51.420;6.970;2023-05-29T06:57:52;100707.88;;;33.33;nan
2563;BME280;1291;51.420;6.970;2023-05-29T07:00:18;100708.50;;;33.22;nan
2563;BME280;1291;51.420;6.970;2023-05-29T07:02:43;100720.66;;;31.42;nan
2563;BME280;1291;51.420;6.970;2023-05-29T07:05:08;100707.94;;;31.82;nan
2563;BME280;1291;51.420;6.970;2023-05-29T07:07:37;100718.75;;;31.63;nan
2563;BME280;1291;51.420;6.970;2023-05-29T07:10:02;100720.66;;;33.29;nan
2563;BME280;1291;51.420;6.970;2023-05-29T07:12:28;100725.34;;;32.09;nan
2563;BME280;1291;51.420;6.970;2023-05-29T07:14:53;100722.78;;;32.90;nan
2563;BME280;1291;51.420;6.970;2023-05-29T07:17:18;100720.53;;;32.99;nan
2563;BME280;1291;51.420;6.970;2023-05-29T07:19:44;100728.88;;;32.27;nan
2563;BME280;1291;51.420;6.970;2023-05-29T07:22:09;100730.66;;;32.62;nan
2563;BME280;1291;51.420;6.970;2023-05-29T07:24:35;100731.63;;;33.72;nan
2563;BME280;1291;51.420;6.970;2023-05-29T07:27:00;100734.91;;;32.15;nan
2563;BME280;1291;51.420;6.970;2023-05-29T07:29:26;100723.91;;;34.26;nan
2563;BME280;1291;51.420;6.970;2023-05-29T07:31:51;100735.47;;;31.12;nan
2563;BME280;1291;51.420;6.970;2023-05-29T07:34:17;100747.22;;;33.97;nan
2563;BME280;1291;51.420;6.970;2023-05-29T07:37:00;100741.81;;;33.67;nan
2563;BME280;1291;51.420;6.970;2023-05-29T07:39:26;100745.28;;;33.37;nan
2563;BME280;1291;51.420;6.970;2023-05-29T07:41:52;100748.84;;;32.57;nan
2563;BME280;1291;51.420;6.970;2023-05-29T07:44:17;100748.28;;;33.79;nan
2563;BME280;1291;51.420;6.970;2023-05-29T07:46:43;100748.00;;;33.37;nan
2563;BME280;1291;51.420;6.970;2023-05-29T07:49:08;100761.25;;;32.59;nan
2563;BME280;1291;51.420;6.970;2023-05-29T07:51:33;100751.22;;;33.90;nan
2563;BME280;1291;51.420;6.970;2023-05-29T07:53:59;100747.66;;;35.20;nan
2563;BME280;1291;51.420;6.970;2023-05-29T07:56:24;100751.41;;;32.42;nan
2563;BME280;1291;51.420;6.970;2023-05-29T07:58:50;100756.44;;;34.38;nan
2563;BME280;1291;51.420;6.970;2023-05-29T08:01:18;100767.03;;;32.34;nan
2563;BME280;1291;51.420;6.970;2023-05-29T08:03:44;100758.91;;;33.82;nan
2563;BME280;1291;51.420;6.970;2023-05-29T08:06:09;100774.50;;;31.20;nan
2563;BME280;1291;51.420;6.970;2023-05-29T08:08:34;100778.53;;;32.71;nan
2563;BME280;1291;51.420;6.970;2023-05-29T08:11:00;100768.72;;;32.19;nan
2563;BME280;1291;51.420;6.970;2023-05-29T08:13:26;100763.38;;;34.42;nan
2563;BME280;1291;51.420;6.970;2023-05-29T08:15:52;100763.06;;;33.87;nan
2563;BME280;1291;51.420;6.970;2023-05-29T08:18:18;100783.13;;;32.51;nan
2563;BME280;1291;51.420;6.970;2023-05-29T08:20:43;100779.88;;;32.80;nan
2563;BME280;1291;51.420;6.970;2023-05-29T08:23:10;100764.03;;;33.55;nan
2563;BME280;1291;51.420;6.970;2023-05-29T08:25:35;100774.88;;;32.21;nan
2563;BME280;1291;51.420;6.970;2023-05-29T08:28:00;100769.28;;;34.92;nan
2563;BME280;1291;51.420;6.970;2023-05-29T08:30:26;100781.44;;;32.33;nan
2563;BME280;1291;51.420;6.970;2023-05-29T08:32:51;100768.00;;;35.26;nan
2563;BME280;1291;51.420;6.970;2023-05-29T08:35:16;100780.06;;;32.42;nan
2563;BME280;1291;51.420;6.970;2023-05-29T08:37:43;100777.44;;;32.91;nan
2563;BME280;1291;51.420;6.970;2023-05-29T08:40:08;100773.59;;;34.65;nan
2563;BME280;1291;51.420;6.970;2023-05-29T08:42:36;100782.47;;;34.67;nan
2563;BME280;1291;51.420;6.970;2023-05-29T08:45:06;100765.13;;;35.42;nan
2563;BME280;1291;51.420;6.970;2023-05-29T08:47:34;100772.63;;;34.07;nan
2563;BME280;1291;51.420;6.970;2023-05-29T08:50:01;100770.03;;;35.50;nan
2563;BME280;1291;51.420;6.970;2023-05-29T08:52:29;100772.44;;;34.41;nan
2563;BME280;1291;51.420;6.970;2023-05-29T08:54:57;100775.34;;;36.18;nan
2563;BME280;1291;51.420;6.970;2023-05-29T08:57:24;100788.88;;;33.76;nan
2563;BME280;1291;51.420;6.970;2023-05-29T08:59:53;100775.81;;;34.14;nan
2563;BME280;1291;51.420;6.970;2023-05-29T09:02:20;100772.03;;;35.33;nan
2563;BME280;1291;51.420;6.970;2023-05-29T09:04:46;100795.41;;;33.24;nan
2563;BME280;1291;51.420;6.970;2023-05-29T09:07:18;100778.78;;;35.12;nan
2563;BME280;1291;51.420;6.970;2023-05-29T09:09:45;100781.84;;;33.57;nan
2563;BME280;1291;51.420;6.970;2023-05-29T09:12:11;100781.75;;;34.35;nan
2563;BME280;1291;51.420;6.970;2023-05-29T09:14:43;100785.13;;;36.72;nan
2563;BME280;1291;51.420;6.970;2023-05-29T09:17:10;100784.00;;;32.00;nan
2563;BME280;1291;51.420;6.970;2023-05-29T09:19:36;100800.47;;;34.38;nan
2563;BME280;1291;51.420;6.970;2023-05-29T09:22:13;100787.53;;;35.71;nan
2563;BME280;1291;51.420;6.970;2023-05-29T09:24:40;100788.38;;;34.30;nan
2563;BME280;1291;51.420;6.970;2023-05-29T09:27:06;100790.72;;;35.91;nan
2563;BME280;1291;51.420;6.970;2023-05-29T09:29:40;100803.38;;;36.30;nan
2563;BME280;1291;51.420;6.970;2023-05-29T09:32:10;100806.16;;;35.76;nan
2563;BME280;1291;51.420;6.970;2023-05-29T09:34:36;100802.03;;;36.76;nan
2563;BME280;1291;51.420;6.970;2023-05-29T09:37:06;100795.34;;;35.76;nan
2563;BME280;1291;51.420;6.970;2023-05-29T09:42:07;100814.88;;;34.07;nan
2563;BME280;1291;51.420;6.970;2023-05-29T09:44:32;100794.53;;;35.88;nan
2563;BME280;1291;51.420;6.970;2023-05-29T09:47:01;100801.00;;;34.74;nan
2563;BME280;1291;51.420;6.970;2023-05-29T09:49:26;100811.09;;;32.82;nan
2563;BME280;1291;51.420;6.970;2023-05-29T09:51:55;100797.13;;;35.90;nan
2563;BME280;1291;51.420;6.970;2023-05-29T09:54:21;100787.47;;;34.59;nan
2563;BME280;1291;51.420;6.970;2023-05-29T09:56:50;100791.34;;;35.54;nan
2563;BME280;1291;51.420;6.970;2023-05-29T09:59:15;100799.91;;;33.39;nan
2563;BME280;1291;51.420;6.970;2023-05-29T10:01:43;100797.91;;;34.80;nan
2563;BME280;1291;51.420;6.970;2023-05-29T10:04:10;100802.63;;;34.17;nan
2563;BME280;1291;51.420;6.970;2023-05-29T10:06:45;100813.28;;;33.57;nan
2563;BME280;1291;51.420;6.970;2023-05-29T10:09:14;100814.66;;;36.50;nan
2563;BME280;1291;51.420;6.970;2023-05-29T10:11:43;100800.94;;;36.00;nan
2563;BME280;1291;51.420;6.970;2023-05-29T10:14:11;100792.16;;;35.96;nan
2563;BME280;1291;51.420;6.970;2023-05-29T10:16:41;100799.63;;;36.71;nan
2563;BME280;1291;51.420;6.970;2023-05-29T10:19:12;100802.28;;;35.80;nan
2563;BME280;1291;51.420;6.970;2023-05-29T10:21:39;100803.09;;;34.24;nan
2563;BME280;1291;51.420;6.970;2023-05-29T10:24:06;100786.81;;;35.55;nan
2563;BME280;1291;51.420;6.970;2023-05-29T10:26:34;100792.47;;;35.92;nan
2563;BME280;1291;51.420;6.970;2023-05-29T10:29:38;100791.72;;;34.92;nan
2563;BME280;1291;51.420;6.970;2023-05-29T10:35:08;100786.06;;;35.53;nan
2563;BME280;1291;51.420;6.970;2023-05-29T10:37:55;100792.09;;;34.57;nan
2563;BME280;1291;51.420;6.970;2023-05-29T10:40:24;100793.28;;;33.61;nan
2563;BME280;1291;51.420;6.970;2023-05-29T10:42:51;100796.91;;;35.10;nan
2563;BME280;1291;51.420;6.970;2023-05-29T10:50:43;100784.78;;;35.86;nan
2563;BME280;1291;51.420;6.970;2023-05-29T10:53:13;100781.81;;;36.03;nan
2563;BME280;1291;51.420;6.970;2023-05-29T10:55:41;100784.81;;;34.74;nan
2563;BME280;1291;51.420;6.970;2023-05-29T10:58:07;100785.91;;;32.67;nan
2563;BME280;1291;51.420;6.970;2023-05-29T11:00:33;100772.69;;;34.22;nan
2563;BME280;1291;51.420;6.970;2023-05-29T11:03:07;100784.03;;;33.97;nan
2563;BME280;1291;51.420;6.970;2023-05-29T11:05:32;100774.56;;;35.22;nan
2563;BME280;1291;51.420;6.970;2023-05-29T11:08:01;100768.41;;;36.01;nan
2563;BME280;1291;51.420;6.970;2023-05-29T11:10:55;100778.78;;;35.12;nan
2563;BME280;1291;51.420;6.970;2023-05-29T11:19:16;100767.59;;;37.52;nan
2563;BME280;1291;51.420;6.970;2023-05-29T11:21:49;100765.28;;;36.97;nan
2563;BME280;1291;51.420;6.970;2023-05-29T11:24:21;100766.19;;;36.72;nan
2563;BME280;1291;51.420;6.970;2023-05-29T11:26:46;100774.97;;;34.87;nan
2563;BME280;1291;51.420;6.970;2023-05-29T11:29:12;100780.84;;;35.50;nan
2563;BME280;1291;51.420;6.970;2023-05-29T11:31:39;100776.84;;;34.42;nan
2563;BME280;1291;51.420;6.970;2023-05-29T11:34:09;100776.97;;;34.10;nan
2563;BME280;1291;51.420;6.970;2023-05-29T11:36:39;100756.97;;;37.97;nan
2563;BME280;1291;51.420;6.970;2023-05-29T11:39:05;100751.38;;;37.76;nan
2563;BME280;1291;51.420;6.970;2023-05-29T11:41:30;100761.34;;;36.65;nan
2563;BME280;1291;51.420;6.970;2023-05-29T11:44:00;100757.97;;;35.82;nan
2563;BME280;1291;51.420;6.970;2023-05-29T11:46:27;100767.41;;;35.90;nan
2563;BME280;1291;51.420;6.970;2023-05-29T11:48:56;100764.88;;;37.52;nan
2563;BME280;1291;51.420;6.970;2023-05-29T11:51:21;100764.97;;;34.75;nan
2563;BME280;1291;51.420;6.970;2023-05-29T11:53:47;100752.91;;;35.91;nan
2563;BME280;1291;51.420;6.970;2023-05-29T11:56:16;100745.13;;;37.01;nan
2563;BME280;1291;51.420;6.970;2023-05-29T11:58:42;100748.94;;;38.20;nan
2563;BME280;1291;51.420;6.970;2023-05-29T12:01:08;100748.13;;;36.73;nan
2563;BME280;1291;51.420;6.970;2023-05-29T12:03:43;100745.31;;;37.48;nan
2563;BME280;1291;51.420;6.970;2023-05-29T12:06:11;100745.31;;;38.54;nan
2563;BME280;1291;51.420;6.970;2023-05-29T12:08:37;100748.50;;;38.60;nan
2563;BME280;1291;51.420;6.970;2023-05-29T12:11:03;100753.94;;;37.66;nan
2563;BME280;1291;51.420;6.970;2023-05-29T12:13:31;100759.19;;;37.07;nan
2563;BME280;1291;51.420;6.970;2023-05-29T12:16:03;100750.59;;;38.90;nan
2563;BME280;1291;51.420;6.970;2023-05-29T12:18:29;100754.38;;;38.31;nan
2563;BME280;1291;51.420;6.970;2023-05-29T12:21:00;100766.41;;;36.31;nan
2563;BME280;1291;51.420;6.970;2023-05-29T12:23:27;100757.97;;;37.48;nan
2563;BME280;1291;51.420;6.970;2023-05-29T12:25:53;100756.59;;;37.42;nan
2563;BME280;1291;51.420;6.970;2023-05-29T12:28:20;100754.19;;;38.68;nan
2563;BME280;1291;51.420;6.970;2023-05-29T12:30:58;100742.34;;;38.69;nan
2563;BME280;1291;51.420;6.970;2023-05-29T12:33:33;100742.81;;;37.93;nan
2563;BME280;1291;51.420;6.970;2023-05-29T12:36:06;100742.06;;;38.94;nan
2563;BME280;1291;51.420;6.970;2023-05-29T12:38:33;100748.31;;;39.72;nan
2563;BME280;1291;51.420;6.970;2023-05-29T12:40:58;100750.94;;;36.71;nan
2563;BME280;1291;51.420;6.970;2023-05-29T12:43:23;100751.19;;;39.16;nan
2563;BME280;1291;51.420;6.970;2023-05-29T12:45:54;100749.50;;;38.70;nan
2563;BME280;1291;51.420;6.970;2023-05-29T12:48:26;100770.75;;;37.09;nan
2563;BME280;1291;51.420;6.970;2023-05-29T12:50:54;100756.28;;;36.97;nan
2563;BME280;1291;51.420;6.970;2023-05-29T12:53:19;100745.16;;;39.88;nan
2563;BME280;1291;51.420;6.970;2023-05-29T12:55:46;100750.50;;;37.75;nan
2563;BME280;1291;51.420;6.970;2023-05-29T12:58:13;100766.56;;;37.42;nan
2563;BME280;1291;51.420;6.970;2023-05-29T13:00:41;100765.09;;;39.34;nan
2563;BME280;1291;51.420;6.970;2023-05-29T13:03:08;100755.13;;;39.99;nan
2563;BME280;1291;51.420;6.970;2023-05-29T13:05:33;100767.91;;;38.20;nan
2563;BME280;1291;51.420;6.970;2023-05-29T13:07:59;100758.63;;;37.51;nan
2563;BME280;1291;51.420;6.970;2023-05-29T13:10:26;100767.25;;;36.95;nan
2563;BME280;1291;51.420;6.970;2023-05-29T13:12:53;100758.25;;;39.07;nan
2563;BME280;1291;51.420;6.970;2023-05-29T13:15:21;100758.72;;;37.98;nan
2563;BME280;1291;51.420;6.970;2023-05-29T13:17:47;100755.00;;;39.25;nan
2563;BME280;1291;51.420;6.970;2023-05-29T13:20:13;100765.81;;;37.39;nan
2563;BME280;1291;51.420;6.970;2023-05-29T13:22:40;100749.00;;;38.65;nan
2563;BME280;1291;51.420;6.970;2023-05-29T13:25:06;100755.22;;;37.85;nan
2563;BME280;1291;51.420;6.970;2023-05-29T13:27:33;100750.91;;;38.17;nan
2563;BME280;1291;51.420;6.970;2023-05-29T13:30:00;100755.63;;;38.03;nan
2563;BME280;1291;51.420;6.970;2023-05-29T13:32:29;100752.00;;;36.17;nan
2563;BME280;1291;51.420;6.970;2023-05-29T13:34:58;100748.50;;;38.60;nan
2563;BME280;1291;51.420;6.970;2023-05-29T13:37:23;100745.16;;;37.38;nan
2563;BME280;1291;51.420;6.970;2023-05-29T13:39:49;100743.22;;;37.28;nan
2563;BME280;1291;51.420;6.970;2023-05-29T13:42:14;100738.13;;;38.53;nan
2563;BME280;1291;51.420;6.970;2023-05-29T13:44:40;100735.16;;;37.02;nan
2563;BME280;1291;51.420;6.970;2023-05-29T13:47:06;100737.72;;;36.41;nan
2563;BME280;1291;51.420;6.970;2023-05-29T13:49:32;100721.34;;;38.37;nan
2563;BME280;1291;51.420;6.970;2023-05-29T13:51:58;100736.34;;;38.18;nan
2563;BME280;1291;51.420;6.970;2023-05-29T13:54:23;100737.50;;;39.50;nan
2563;BME280;1291;51.420;6.970;2023-05-29T13:56:48;100737.03;;;37.98;nan
2563;BME280;1291;51.420;6.970;2023-05-29T13:59:14;100740.38;;;37.66;nan
2563;BME280;1291;51.420;6.970;2023-05-29T14:01:40;100737.94;;;36.38;nan
2563;BME280;1291;51.420;6.970;2023-05-29T14:04:05;100737.41;;;37.08;nan